Time;durP1;ratioP1;P1;durP2;ratioP2;P2;SDS_P1;SDS_P2;PMS_P1;PMS_P2;Temp;Humidity;BMP_temperature;BMP_pressure;BME280_temperature;BME280_humidity;BME280_pressure;Samples;Min_cycle;Max_cycle;Signal;HPM_P1;HPM_P2
2023/06/03 00:02:14;;;;;;;5.20;4.70;;;;;;;25.28;46.16;98220.25;105667;1258;72793;-87
2023/06/03 00:04:43;;;;;;;5.00;4.60;;;;;;;25.27;46.06;98218.34;105729;1259;59764;-87
2023/06/03 00:07:11;;;;;;;6.10;5.50;;;;;;;25.26;46.16;98217.52;105855;1259;60266;-87
2023/06/03 00:09:39;;;;;;;5.40;4.90;;;;;;;25.25;46.14;98222.90;105551;1261;73396;-86
2023/06/03 00:12:07;;;;;;;4.90;4.50;;;;;;;25.24;46.17;98226.29;105774;1257;68722;-86
2023/06/03 00:14:35;;;;;;;4.90;4.50;;;;;;;25.23;46.15;98228.23;105526;1254;73898;-87
2023/06/03 00:17:04;;;;;;;5.30;4.90;;;;;;;25.23;46.13;98230.64;105501;1261;60184;-86
2023/06/03 00:19:32;;;;;;;5.10;4.70;;;;;;;25.22;46.03;98225.52;105695;1253;59547;-86
2023/06/03 00:22:02;;;;;;;5.00;4.50;;;;;;;25.22;46.16;98226.27;105649;1260;72896;-86
2023/06/03 00:24:30;;;;;;;5.10;4.70;;;;;;;25.21;46.12;98232.44;105722;1253;67869;-87
2023/06/03 00:26:58;;;;;;;5.50;5.00;;;;;;;25.21;46.20;98239.24;105496;1261;72839;-86
2023/06/03 00:29:27;;;;;;;4.60;4.20;;;;;;;25.20;46.12;98248.83;105670;1253;62577;-86
2023/06/03 00:31:55;;;;;;;4.40;4.00;;;;;;;25.20;46.09;98249.64;105675;1253;59656;-87
2023/06/03 00:34:23;;;;;;;5.50;4.80;;;;;;;25.20;46.01;98255.52;105619;1253;71930;-87
2023/06/03 00:36:53;;;;;;;4.70;4.30;;;;;;;25.19;45.94;98258.38;105678;1253;69904;-86
2023/06/03 00:39:22;;;;;;;5.30;4.80;;;;;;;25.19;46.04;98258.94;105509;1258;71721;-86
2023/06/03 00:41:50;;;;;;;5.10;4.60;;;;;;;25.19;46.04;98260.96;105707;1259;60919;-86
2023/06/03 00:44:18;;;;;;;4.70;4.30;;;;;;;25.18;46.00;98259.58;105759;1253;59974;-86
2023/06/03 00:46:46;;;;;;;4.50;4.20;;;;;;;25.17;46.04;98262.77;107395;1253;71757;-87
2023/06/03 00:49:15;;;;;;;4.80;4.00;;;;;;;25.17;45.98;98262.95;109319;1254;68873;-83
2023/06/03 00:51:43;;;;;;;4.00;3.70;;;;;;;25.18;45.98;98266.75;109415;1253;72069;-85
2023/06/03 00:54:11;;;;;;;4.40;3.90;;;;;;;25.19;45.86;98273.05;106435;1254;59723;-87
2023/06/03 00:56:43;;;;;;;4.30;4.00;;;;;;;25.20;45.88;98274.59;105664;1253;60257;-87
2023/06/03 00:59:14;;;;;;;4.80;4.40;;;;;;;25.20;45.96;98273.58;106051;1253;71446;-88
2023/06/03 01:01:43;;;;;;;4.50;3.80;;;;;;;25.20;45.93;98272.81;105841;1254;67976;-87
2023/06/03 01:04:16;;;;;;;4.40;4.00;;;;;;;25.21;45.91;98277.71;105661;1255;72084;-88
2023/06/03 01:07:02;;;;;;;4.50;4.10;;;;;;;25.20;45.89;98281.64;105882;1253;60166;-87
2023/06/03 01:09:51;;;;;;;4.30;3.90;;;;;;;25.20;45.85;98286.21;105812;1254;60056;-87
2023/06/03 01:12:41;;;;;;;3.60;3.30;;;;;;;25.20;45.82;98290.31;105877;1257;74000;-88
2023/06/03 01:15:12;;;;;;;3.90;3.60;;;;;;;25.19;45.85;98294.38;105650;1253;66590;-88
2023/06/03 01:17:45;;;;;;;4.00;3.70;;;;;;;25.18;45.88;98299.31;105765;1259;71965;-87
2023/06/03 01:20:14;;;;;;;4.00;3.60;;;;;;;25.18;45.79;98302.06;105933;1253;60188;-87
2023/06/03 01:22:44;;;;;;;4.80;3.90;;;;;;;25.18;45.90;98302.83;105871;1253;60147;-87
2023/06/03 01:25:15;;;;;;;3.70;3.40;;;;;;;25.17;45.89;98300.70;105692;1253;71895;-87
2023/06/03 01:27:45;;;;;;;3.70;3.40;;;;;;;25.18;45.80;98301.97;105670;1253;68839;-85
2023/06/03 01:30:15;;;;;;;3.80;3.40;;;;;;;25.17;45.82;98303.19;105658;1259;71641;-87
2023/06/03 01:32:44;;;;;;;5.40;3.40;;;;;;;25.16;45.72;98308.89;105825;1258;60093;-87
2023/06/03 01:35:12;;;;;;;3.50;3.20;;;;;;;25.15;45.71;98309.80;105651;1254;59726;-87
2023/06/03 01:37:40;;;;;;;3.40;3.20;;;;;;;25.15;45.78;98311.22;105631;1262;73250;-88
2023/06/03 01:40:09;;;;;;;3.80;3.50;;;;;;;25.15;45.74;98311.51;105697;1253;68296;-87
2023/06/03 01:42:38;;;;;;;3.80;3.50;;;;;;;25.14;45.76;98316.86;105668;1259;72971;-86
2023/06/03 01:45:07;;;;;;;3.70;3.30;;;;;;;25.14;45.72;98318.45;105621;1260;60626;-87
2023/06/03 01:47:35;;;;;;;4.00;3.60;;;;;;;25.14;45.74;98323.18;105593;1260;59552;-87
2023/06/03 01:50:03;;;;;;;3.40;3.10;;;;;;;25.13;45.71;98326.52;105706;1255;71561;-87
2023/06/03 01:52:31;;;;;;;3.40;3.10;;;;;;;25.13;45.78;98323.52;105836;1260;66990;-86
2023/06/03 01:55:00;;;;;;;3.70;3.40;;;;;;;25.12;45.69;98327.41;105750;1259;71477;-86
2023/06/03 01:57:30;;;;;;;3.00;2.70;;;;;;;25.12;45.68;98326.92;105885;1259;60800;-86
2023/06/03 01:59:58;;;;;;;4.60;2.80;;;;;;;25.12;45.65;98330.57;105651;1255;60614;-87
2023/06/03 02:02:26;;;;;;;3.20;2.90;;;;;;;25.11;45.61;98335.63;107085;1254;72000;-87
2023/06/03 02:04:56;;;;;;;3.40;3.10;;;;;;;25.11;45.75;98336.52;109036;1258;68096;-87
2023/06/03 02:07:30;;;;;;;3.40;3.10;;;;;;;25.11;45.69;98339.98;108926;1253;72215;-86
2023/06/03 02:10:00;;;;;;;3.40;3.10;;;;;;;25.12;45.58;98337.89;109267;1254;59540;-86
2023/06/03 02:12:28;;;;;;;3.00;2.70;;;;;;;25.13;45.60;98340.35;108948;1254;59838;-85
2023/06/03 02:14:57;;;;;;;3.30;3.00;;;;;;;25.14;45.65;98342.20;105817;1262;73085;-87
2023/06/03 02:17:26;;;;;;;2.90;2.70;;;;;;;25.15;45.41;98344.23;105663;1258;70094;-86
2023/06/03 02:19:55;;;;;;;3.20;2.90;;;;;;;25.17;45.43;98345.85;105701;1260;72806;-86
2023/06/03 02:22:24;;;;;;;2.80;2.60;;;;;;;25.16;45.38;98347.19;105685;1260;60903;-86
2023/06/03 02:24:53;;;;;;;2.90;2.70;;;;;;;25.16;45.34;98344.95;105805;1260;60633;-87
2023/06/03 02:27:24;;;;;;;3.10;2.70;;;;;;;25.16;45.38;98343.35;105800;1254;73881;-86
2023/06/03 02:29:53;;;;;;;3.40;2.90;;;;;;;25.16;45.30;98348.73;105661;1259;69346;-87
2023/06/03 02:32:21;;;;;;;3.20;2.90;;;;;;;25.16;45.27;98352.77;105953;1260;74903;-85
2023/06/03 02:34:54;;;;;;;2.90;2.70;;;;;;;25.15;45.33;98358.35;105686;1260;62049;-86
2023/06/03 02:37:22;;;;;;;2.80;2.60;;;;;;;25.15;45.42;98360.98;105643;1259;60334;-86
2023/06/03 02:39:50;;;;;;;2.70;2.50;;;;;;;25.14;45.36;98363.67;105615;1253;74458;-87
2023/06/03 02:42:18;;;;;;;2.90;2.70;;;;;;;25.13;45.25;98365.98;105701;1260;68311;-87
2023/06/03 02:44:46;;;;;;;2.50;2.30;;;;;;;25.13;45.30;98370.78;105570;1271;73943;-84
2023/06/03 02:47:15;;;;;;;2.80;2.30;;;;;;;25.12;45.25;98375.25;105546;1253;60723;-87
2023/06/03 02:49:45;;;;;;;2.50;2.30;;;;;;;25.10;45.27;98375.45;105680;1260;60817;-87
2023/06/03 02:52:13;;;;;;;2.60;2.40;;;;;;;25.10;45.26;98372.58;105664;1260;74516;-86
2023/06/03 02:54:41;;;;;;;2.70;2.50;;;;;;;25.10;45.28;98377.20;105606;1255;69006;-87
2023/06/03 02:57:09;;;;;;;2.50;2.30;;;;;;;25.09;45.23;98380.39;105501;1254;71920;-86
2023/06/03 02:59:37;;;;;;;2.60;2.40;;;;;;;25.08;45.23;98386.73;105594;1262;61828;-87
2023/06/03 03:02:06;;;;;;;2.40;2.20;;;;;;;25.08;45.27;98391.71;105578;1260;60501;-87
2023/06/03 03:04:36;;;;;;;2.50;2.30;;;;;;;25.07;45.25;98390.36;105592;1261;74092;-88
2023/06/03 03:13:40;;;;;;;2.40;2.20;;;;;;;25.09;45.26;98402.76;102878;1294;601547;-86
2023/06/03 03:16:09;;;;;;;2.90;2.20;;;;;;;25.07;45.18;98411.45;104731;1266;60699;-85
2023/06/03 03:18:38;;;;;;;1.90;1.80;;;;;;;25.08;45.07;98416.31;104714;1266;60444;-86
2023/06/03 03:21:07;;;;;;;2.30;2.00;;;;;;;25.08;45.01;98421.39;105101;1270;74810;-86
2023/06/03 03:23:35;;;;;;;2.10;1.90;;;;;;;25.07;44.76;98425.86;105176;1268;67978;-87
2023/06/03 03:26:06;;;;;;;3.30;2.10;;;;;;;25.07;44.57;98428.79;105357;1260;71890;-87
2023/06/03 03:28:35;;;;;;;2.40;2.00;;;;;;;25.07;44.59;98430.89;107148;1263;60674;-86
2023/06/03 03:31:08;;;;;;;1.90;1.70;;;;;;;25.06;44.45;98435.03;109106;1256;61125;-86
2023/06/03 03:33:40;;;;;;;2.70;1.90;;;;;;;25.06;44.38;98437.05;109224;1253;71698;-84
2023/06/03 03:36:13;;;;;;;2.20;1.80;;;;;;;25.06;44.23;98442.16;106202;1254;67577;-87
2023/06/03 03:38:41;;;;;;;2.30;2.00;;;;;;;25.06;44.18;98445.44;105804;1260;75031;-86
2023/06/03 03:41:11;;;;;;;2.40;2.00;;;;;;;25.07;44.01;98446.27;105684;1261;61686;-87
2023/06/03 03:43:39;;;;;;;1.80;1.70;;;;;;;25.07;43.91;98450.67;105900;1253;60770;-84
2023/06/03 03:46:09;;;;;;;2.30;1.70;;;;;;;25.07;43.72;98453.42;105482;1263;73224;-86
2023/06/03 03:48:37;;;;;;;1.90;1.80;;;;;;;25.05;43.79;98455.06;105876;1257;66884;-86
2023/06/03 03:51:06;;;;;;;2.10;1.60;;;;;;;25.05;43.59;98461.27;105538;1253;73357;-85
2023/06/03 03:53:36;;;;;;;1.80;1.60;;;;;;;25.04;43.48;98464.23;105641;1254;60294;-87
2023/06/03 03:56:09;;;;;;;2.60;1.80;;;;;;;25.03;43.50;98461.01;105649;1254;60162;-87
2023/06/03 03:58:43;;;;;;;2.00;1.50;;;;;;;25.03;43.43;98459.81;105849;1253;74088;-87
2023/06/03 04:01:22;;;;;;;2.20;2.00;;;;;;;25.02;43.35;98464.48;105573;1253;68551;-87
2023/06/03 04:03:56;;;;;;;1.80;1.70;;;;;;;25.02;43.34;98466.91;105578;1253;73549;-86
2023/06/03 04:06:28;;;;;;;1.90;1.60;;;;;;;25.00;43.22;98467.06;105613;1254;60472;-86
2023/06/03 04:08:56;;;;;;;1.80;1.50;;;;;;;25.00;43.16;98470.22;105772;1254;60448;-86
2023/06/03 04:11:26;;;;;;;3.30;1.60;;;;;;;24.99;43.06;98474.18;105505;1253;72023;-87
2023/06/03 04:13:58;;;;;;;2.30;1.60;;;;;;;24.99;43.01;98475.15;105862;1253;69194;-87
2023/06/03 04:17:02;;;;;;;1.70;1.60;;;;;;;24.98;43.00;98478.19;105742;1255;73159;-86
2023/06/03 04:19:36;;;;;;;2.10;1.40;;;;;;;24.97;42.89;98478.86;105944;1254;60133;-87
2023/06/03 04:22:22;;;;;;;1.30;1.20;;;;;;;24.96;42.86;98483.33;105778;1253;61244;-87
2023/06/03 04:25:02;;;;;;;2.90;1.50;;;;;;;24.96;42.92;98482.29;105802;1258;75376;-86
2023/06/03 04:27:36;;;;;;;1.30;1.20;;;;;;;24.96;43.00;98482.89;106235;1253;67522;-84
2023/06/03 04:30:07;;;;;;;1.50;1.30;;;;;;;24.95;42.98;98483.29;106051;1260;73540;-86
2023/06/03 04:32:36;;;;;;;2.20;1.70;;;;;;;24.95;42.91;98483.71;106845;1252;59638;-85
2023/06/03 04:35:05;;;;;;;2.00;1.50;;;;;;;24.95;42.91;98485.73;108594;1252;59211;-86
2023/06/03 04:37:35;;;;;;;1.60;1.50;;;;;;;24.96;42.96;98487.63;108574;1253;72615;-87
2023/06/03 04:40:08;;;;;;;3.50;1.30;;;;;;;24.97;42.95;98487.73;106457;1254;69265;-87
2023/06/03 04:42:40;;;;;;;2.60;1.50;;;;;;;24.98;43.08;98489.98;105930;1259;73329;-87
2023/06/03 04:45:09;;;;;;;1.20;1.10;;;;;;;24.98;42.95;98490.66;105709;1253;60934;-87
2023/06/03 04:47:41;;;;;;;2.10;1.50;;;;;;;24.98;43.06;98496.11;109239;1253;59802;-86
2023/06/03 04:50:11;;;;;;;2.00;1.50;;;;;;;24.99;43.03;98494.94;109202;1254;71909;-87
2023/06/03 04:52:40;;;;;;;2.50;1.40;;;;;;;25.00;43.06;98500.87;109184;1253;68837;-86
2023/06/03 04:55:12;;;;;;;1.40;1.30;;;;;;;25.00;43.04;98504.80;109192;1253;72474;-85
2023/06/03 04:57:40;;;;;;;1.60;1.30;;;;;;;25.02;42.87;98507.15;109198;1253;58202;-86
2023/06/03 05:00:09;;;;;;;1.30;1.20;;;;;;;25.04;42.86;98507.67;109274;1253;59601;-86
2023/06/03 05:02:38;;;;;;;1.30;1.20;;;;;;;25.05;42.69;98512.25;109231;1253;73586;-87
2023/06/03 05:05:07;;;;;;;1.90;1.80;;;;;;;25.06;42.58;98516.45;109193;1253;68054;-87
2023/06/03 05:07:35;;;;;;;1.60;1.30;;;;;;;25.08;42.57;98518.98;109440;1253;71458;-86
2023/06/03 05:10:04;;;;;;;1.30;1.20;;;;;;;25.10;42.49;98518.77;109238;1253;59021;-86
2023/06/03 05:12:33;;;;;;;1.50;1.40;;;;;;;25.11;42.46;98515.53;109236;1253;58506;-87
2023/06/03 05:15:01;;;;;;;1.50;1.30;;;;;;;25.13;42.44;98526.11;109250;1253;72534;-86
2023/06/03 05:17:29;;;;;;;2.00;1.10;;;;;;;25.14;42.32;98531.45;109255;1253;71022;-87
2023/06/03 05:19:58;;;;;;;1.50;1.30;;;;;;;25.15;42.25;98532.55;109246;1253;72765;-85
2023/06/03 05:22:26;;;;;;;1.40;1.10;;;;;;;25.16;42.31;98529.92;109219;1254;59280;-86
2023/06/03 05:24:54;;;;;;;1.40;1.30;;;;;;;25.17;42.17;98529.43;109149;1253;58858;-87
2023/06/03 05:27:22;;;;;;;1.40;1.10;;;;;;;25.17;42.13;98534.88;109221;1253;72053;-87
2023/06/03 05:29:50;;;;;;;1.20;1.10;;;;;;;25.18;42.08;98529.28;109273;1253;67804;-87
2023/06/03 05:32:20;;;;;;;1.70;1.20;;;;;;;25.19;42.22;98531.95;109254;1253;74919;-86
2023/06/03 05:34:48;;;;;;;1.60;1.10;;;;;;;25.19;42.29;98535.34;109208;1253;61142;-87
2023/06/03 05:37:17;;;;;;;1.40;1.30;;;;;;;25.20;42.26;98539.65;109359;1253;58841;-86
2023/06/03 05:39:45;;;;;;;1.30;1.20;;;;;;;25.20;42.23;98538.52;109226;1253;73155;-86
2023/06/03 05:42:13;;;;;;;1.20;1.10;;;;;;;25.21;42.25;98540.64;109282;1252;68863;-86
2023/06/03 05:44:42;;;;;;;1.80;1.20;;;;;;;25.21;42.18;98540.81;109323;1253;73326;-84
2023/06/03 05:47:10;;;;;;;2.40;1.00;;;;;;;25.22;42.21;98541.83;109212;1253;60124;-85
2023/06/03 05:49:40;;;;;;;1.70;1.50;;;;;;;25.22;42.16;98541.63;109227;1253;60409;-86
2023/06/03 05:52:08;;;;;;;1.10;1.10;;;;;;;25.22;42.29;98546.28;109226;1253;73098;-86
2023/06/03 05:54:36;;;;;;;1.60;1.50;;;;;;;25.22;42.21;98544.80;109376;1252;69472;-87
2023/06/03 05:57:05;;;;;;;1.20;1.10;;;;;;;25.23;42.24;98545.86;109375;1253;71502;-87
2023/06/03 05:59:33;;;;;;;1.20;1.10;;;;;;;25.23;42.06;98549.16;109130;1258;62383;-86
2023/06/03 06:02:02;;;;;;;1.10;1.00;;;;;;;25.23;42.17;98552.20;109207;1253;60093;-87
2023/06/03 06:04:30;;;;;;;1.50;1.40;;;;;;;25.23;42.25;98547.48;109468;1253;72021;-87
2023/06/03 06:06:59;;;;;;;1.20;1.10;;;;;;;25.24;42.22;98549.75;109190;1253;68280;-88
2023/06/03 06:09:27;;;;;;;1.10;1.00;;;;;;;25.24;42.32;98546.84;109260;1253;73308;-87
2023/06/03 06:14:57;;;;;;;1.20;1.10;;;;;;;25.26;42.21;98548.05;106335;1289;600344;-86
2023/06/03 06:17:25;;;;;;;1.60;1.10;;;;;;;25.25;42.23;98546.02;108179;1265;59258;-87
2023/06/03 06:19:54;;;;;;;0.90;0.90;;;;;;;25.24;42.20;98551.71;105231;1266;60171;-87
2023/06/03 06:22:22;;;;;;;1.20;1.10;;;;;;;25.24;42.20;98552.52;104921;1265;71621;-87
2023/06/03 06:24:50;;;;;;;0.80;0.80;;;;;;;25.23;42.20;98556.30;104954;1274;68243;-86
2023/06/03 06:27:18;;;;;;;1.50;1.20;;;;;;;25.21;42.17;98556.58;104816;1269;72201;-86
2023/06/03 06:29:47;;;;;;;1.10;1.00;;;;;;;25.20;42.19;98556.02;104951;1268;190804;-88
2023/06/03 06:32:22;;;;;;;1.10;1.00;;;;;;;25.18;42.15;98559.16;105212;1264;60247;-87
2023/06/03 06:34:52;;;;;;;1.00;0.90;;;;;;;25.15;42.19;98557.87;105020;1263;71238;-87
2023/06/03 06:37:20;;;;;;;1.40;1.00;;;;;;;25.13;42.26;98557.77;105228;1270;68154;-86
2023/06/03 06:39:50;;;;;;;1.00;1.00;;;;;;;25.11;42.32;98556.36;105127;1265;71489;-85
2023/06/03 06:42:36;;;;;;;1.70;1.40;;;;;;;25.09;42.38;98559.98;105136;1264;62064;-88
2023/06/03 06:45:32;;;;;;;1.00;0.80;;;;;;;25.07;42.49;98561.90;105079;1263;59737;-88
2023/06/03 06:48:12;;;;;;;1.10;1.00;;;;;;;25.04;42.49;98560.17;105593;1256;73730;-86
2023/06/03 06:50:55;;;;;;;1.20;1.10;;;;;;;25.02;42.44;98556.39;105678;1256;67879;-84
2023/06/03 06:53:27;;;;;;;1.40;1.00;;;;;;;25.01;42.48;98560.65;105582;1260;73990;-86
2023/06/03 06:56:03;;;;;;;2.50;0.90;;;;;;;24.99;42.59;98565.75;105851;1256;59668;-85
2023/06/03 06:58:38;;;;;;;0.90;0.90;;;;;;;24.98;42.66;98564.30;105691;1256;59567;-86
2023/06/03 07:01:10;;;;;;;1.20;1.10;;;;;;;24.97;42.65;98559.67;105789;1256;73384;-85
2023/06/03 07:03:47;;;;;;;0.80;0.80;;;;;;;24.96;42.69;98561.27;105672;1256;67553;-87
2023/06/03 07:06:16;;;;;;;1.60;1.00;;;;;;;24.95;42.67;98558.44;105859;1263;71645;-87
2023/06/03 07:08:46;;;;;;;1.00;0.90;;;;;;;24.94;42.72;98555.96;106073;1259;61808;-86
2023/06/03 07:11:15;;;;;;;1.00;0.90;;;;;;;24.93;42.65;98558.46;107943;1260;60571;-87
2023/06/03 07:13:53;;;;;;;1.10;1.00;;;;;;;24.93;42.68;98558.39;108821;1256;71563;-86
2023/06/03 07:16:22;;;;;;;0.90;0.90;;;;;;;24.93;42.73;98554.90;108964;1257;67533;-87
2023/06/03 07:18:53;;;;;;;1.00;0.90;;;;;;;24.93;42.78;98556.30;109074;1257;71663;-85
2023/06/03 07:21:44;;;;;;;1.10;1.00;;;;;;;24.94;42.84;98552.29;107010;1259;60097;-88
2023/06/03 07:24:13;;;;;;;1.20;1.10;;;;;;;24.95;42.72;98549.98;105692;1264;60143;-86
2023/06/03 07:26:45;;;;;;;1.10;1.00;;;;;;;24.96;42.70;98552.10;105585;1264;73799;-87
2023/06/03 07:29:13;;;;;;;1.20;0.90;;;;;;;24.97;42.71;98555.32;105706;1264;70687;-87
2023/06/03 07:31:42;;;;;;;1.10;1.00;;;;;;;24.96;42.70;98555.94;105502;1258;71489;-86
2023/06/03 07:34:13;;;;;;;0.90;0.80;;;;;;;24.96;42.72;98557.05;105573;1259;61474;-87
2023/06/03 07:36:44;;;;;;;0.80;0.70;;;;;;;24.95;42.75;98558.02;105623;1258;60264;-84
2023/06/03 07:39:17;;;;;;;1.00;0.90;;;;;;;24.94;42.77;98554.50;105705;1259;73519;-88
2023/06/03 07:41:51;;;;;;;0.90;0.90;;;;;;;24.94;42.65;98560.96;105466;1257;71575;-86
2023/06/03 07:44:47;;;;;;;1.20;1.00;;;;;;;24.93;42.72;98556.81;105872;1257;72974;-88
2023/06/03 07:47:17;;;;;;;1.00;0.90;;;;;;;24.92;42.70;98558.61;105785;1257;60362;-87
2023/06/03 07:49:47;;;;;;;2.30;1.00;;;;;;;24.92;42.72;98557.42;106502;1261;59679;-88
2023/06/03 07:52:22;;;;;;;0.90;0.80;;;;;;;24.91;42.68;98559.32;107230;1257;71935;-90
2023/06/03 07:55:15;;;;;;;0.90;0.90;;;;;;;24.89;42.76;98559.67;106401;1257;68422;-88
2023/06/03 07:57:48;;;;;;;0.90;0.90;;;;;;;24.90;42.81;98564.51;108958;1257;71820;-90
2023/06/03 08:00:16;;;;;;;0.90;0.90;;;;;;;24.90;42.79;98568.18;108919;1261;59526;-88
2023/06/03 08:02:44;;;;;;;1.00;0.90;;;;;;;24.92;42.79;98560.34;107646;1261;61726;-88
2023/06/03 08:05:14;;;;;;;1.00;0.90;;;;;;;24.92;42.83;98562.89;106056;1257;72116;-89
2023/06/03 08:07:44;;;;;;;0.90;0.80;;;;;;;24.92;42.82;98563.01;105802;1264;71150;-89
2023/06/03 08:10:21;;;;;;;0.70;0.70;;;;;;;24.93;42.76;98561.23;105911;1262;70885;-90
2023/06/03 08:12:49;;;;;;;1.10;1.00;;;;;;;24.93;42.73;98564.36;105721;1258;62690;-89
2023/06/03 08:15:38;;;;;;;1.20;1.00;;;;;;;24.93;42.69;98565.66;105900;1256;62733;-89
2023/06/03 08:18:08;;;;;;;1.50;1.00;;;;;;;24.92;42.76;98567.65;105767;1257;71872;-88
2023/06/03 08:20:36;;;;;;;0.80;0.80;;;;;;;24.92;42.77;98565.64;105821;1264;70241;-90
2023/06/03 08:23:04;;;;;;;1.10;0.90;;;;;;;24.91;42.81;98564.23;105979;1259;72873;-88
2023/06/03 08:25:33;;;;;;;0.80;0.80;;;;;;;24.90;42.76;98569.50;105870;1257;60289;-88
2023/06/03 08:28:01;;;;;;;1.50;0.70;;;;;;;24.90;42.72;98571.89;105758;1257;59496;-89
2023/06/03 08:30:29;;;;;;;0.70;0.70;;;;;;;24.89;42.79;98565.92;105677;1256;72219;-88
2023/06/03 08:32:57;;;;;;;1.50;1.00;;;;;;;24.88;42.74;98567.74;105683;1265;68354;-89
2023/06/03 08:35:26;;;;;;;0.70;0.70;;;;;;;24.87;42.83;98567.23;105690;1259;70916;-89
2023/06/03 08:37:56;;;;;;;1.10;0.80;;;;;;;24.87;42.87;98568.62;105726;1256;60144;-87
2023/06/03 08:40:25;;;;;;;0.80;0.70;;;;;;;24.86;42.79;98570.17;105721;1256;62515;-89
2023/06/03 08:43:00;;;;;;;0.80;0.70;;;;;;;24.85;42.95;98571.17;105812;1256;73111;-90
2023/06/03 08:45:31;;;;;;;0.90;0.80;;;;;;;24.85;42.90;98572.11;106062;1256;69507;-87
2023/06/03 08:48:06;;;;;;;0.90;0.70;;;;;;;24.84;42.75;98573.15;105910;1256;73439;-88
2023/06/03 08:50:35;;;;;;;0.80;0.80;;;;;;;24.84;42.86;98574.67;105926;1258;60096;-88
2023/06/03 08:53:08;;;;;;;1.00;0.90;;;;;;;24.83;42.75;98575.30;105661;1257;61145;-89
2023/06/03 08:55:38;;;;;;;0.60;0.60;;;;;;;24.82;42.95;98581.58;105830;1256;74163;-89
2023/06/03 08:58:32;;;;;;;0.70;0.60;;;;;;;24.82;42.88;98577.45;105901;1260;68186;-87
2023/06/03 09:01:01;;;;;;;1.10;1.00;;;;;;;24.82;42.85;98573.30;106117;1263;75397;-88
2023/06/03 09:03:32;;;;;;;0.90;0.70;;;;;;;24.81;42.89;98577.38;105980;1257;59731;-89
2023/06/03 09:06:00;;;;;;;0.80;0.70;;;;;;;24.81;42.92;98573.88;105811;1261;59644;-89
2023/06/03 09:08:28;;;;;;;1.50;1.00;;;;;;;24.81;42.92;98573.95;106286;1255;72311;-89
2023/06/03 09:10:56;;;;;;;1.00;0.70;;;;;;;24.80;42.83;98572.14;105987;1253;71115;-88
2023/06/03 09:13:28;;;;;;;1.70;1.10;;;;;;;24.80;42.86;98570.16;105791;1260;73068;-87
2023/06/03 09:15:57;;;;;;;0.80;0.70;;;;;;;24.80;42.95;98568.92;106054;1253;59632;-88
2023/06/03 09:18:25;;;;;;;1.00;0.70;;;;;;;24.80;42.85;98568.03;106054;1253;59729;-89
2023/06/03 09:20:53;;;;;;;0.80;0.80;;;;;;;24.79;42.87;98572.33;106045;1262;73657;-88
2023/06/03 09:23:21;;;;;;;1.00;0.90;;;;;;;24.79;42.86;98575.30;106041;1253;69144;-88
2023/06/03 09:25:50;;;;;;;0.70;0.70;;;;;;;24.79;42.85;98572.92;106104;1260;71804;-88
2023/06/03 09:28:19;;;;;;;0.70;0.70;;;;;;;24.79;42.89;98571.99;106192;1253;60128;-88
2023/06/03 09:30:48;;;;;;;0.90;0.90;;;;;;;24.78;42.90;98571.52;106280;1257;59804;-89
2023/06/03 09:33:16;;;;;;;0.60;0.60;;;;;;;24.78;42.84;98575.91;106164;1253;73153;-86
2023/06/03 09:36:08;;;;;;;0.90;0.70;;;;;;;24.78;42.88;98573.16;106171;1260;68754;-88
2023/06/03 09:38:54;;;;;;;0.70;0.70;;;;;;;24.78;42.87;98566.75;105867;1253;70685;-88
2023/06/03 09:41:27;;;;;;;0.80;0.60;;;;;;;24.78;42.92;98558.96;106362;1253;62510;-88
2023/06/03 09:44:01;;;;;;;0.90;0.80;;;;;;;24.77;42.91;98559.89;106153;1253;59618;-89
2023/06/03 09:46:30;;;;;;;0.80;0.70;;;;;;;24.77;42.89;98559.38;106600;1257;75613;-88
2023/06/03 09:49:09;;;;;;;1.00;0.80;;;;;;;24.77;42.86;98558.41;106211;1258;67668;-90
2023/06/03 09:51:45;;;;;;;0.70;0.70;;;;;;;24.77;42.91;98554.06;106177;1258;72158;-88
2023/06/03 09:54:14;;;;;;;1.00;0.90;;;;;;;24.77;42.84;98556.67;105987;1260;60230;-89
2023/06/03 09:56:45;;;;;;;0.70;0.70;;;;;;;24.76;42.89;98552.32;106227;1253;59658;-88
2023/06/03 09:59:23;;;;;;;0.50;0.50;;;;;;;24.77;42.94;98549.73;106030;1259;72040;-88
2023/06/03 10:01:53;;;;;;;1.00;1.00;;;;;;;24.77;42.89;98556.89;106192;1257;70187;-88
2023/06/03 10:04:41;;;;;;;0.70;0.70;;;;;;;24.76;42.87;98556.37;106300;1253;73349;-88
2023/06/03 10:07:14;;;;;;;0.90;0.70;;;;;;;24.76;42.80;98552.39;106066;1254;59678;-88
2023/06/03 10:09:46;;;;;;;0.90;0.80;;;;;;;24.75;42.88;98550.44;106257;1253;61389;-88
2023/06/03 10:12:27;;;;;;;1.20;0.70;;;;;;;24.76;42.88;98554.08;106030;1253;72202;-88
2023/06/03 10:14:56;;;;;;;1.70;0.70;;;;;;;24.75;42.89;98551.95;105995;1257;67569;-90
2023/06/03 10:17:24;;;;;;;0.60;0.60;;;;;;;24.74;42.84;98553.31;106043;1253;72304;-87
2023/06/03 10:19:53;;;;;;;0.70;0.70;;;;;;;24.75;42.92;98550.69;106168;1258;61945;-88
2023/06/03 10:22:21;;;;;;;0.70;0.50;;;;;;;24.75;42.91;98556.35;106104;1253;59654;-88
2023/06/03 10:24:49;;;;;;;0.70;0.50;;;;;;;24.75;42.85;98551.27;106141;1253;75427;-89
2023/06/03 10:27:17;;;;;;;0.60;0.60;;;;;;;24.75;42.90;98544.30;106180;1253;68983;-88
2023/06/03 10:29:47;;;;;;;0.50;0.50;;;;;;;24.74;42.86;98548.41;107894;1258;73824;-87
2023/06/03 10:32:16;;;;;;;0.90;0.90;;;;;;;24.75;42.80;98544.30;108244;1254;61456;-89
2023/06/03 10:34:44;;;;;;;1.30;0.70;;;;;;;24.75;42.74;98548.08;108825;1253;59269;-86
2023/06/03 10:37:13;;;;;;;0.50;0.50;;;;;;;24.75;42.97;98544.56;109299;1253;75286;-88
2023/06/03 10:39:42;;;;;;;0.90;0.60;;;;;;;24.77;42.90;98543.66;109063;1253;66702;-88
2023/06/03 10:42:11;;;;;;;0.60;0.60;;;;;;;24.78;42.79;98545.50;106385;1254;73072;-88
2023/06/03 10:44:39;;;;;;;0.70;0.70;;;;;;;24.80;42.69;98538.73;106137;1253;60436;-88
2023/06/03 10:47:25;;;;;;;0.60;0.60;;;;;;;24.81;42.66;98534.40;106068;1258;60445;-87
2023/06/03 10:49:56;;;;;;;0.60;0.60;;;;;;;24.81;42.74;98523.22;106031;1253;73905;-88
2023/06/03 10:52:34;;;;;;;2.10;0.70;;;;;;;24.81;42.65;98532.33;105896;1253;69597;-89
2023/06/03 10:55:25;;;;;;;0.60;0.60;;;;;;;24.81;42.66;98524.98;105933;1256;74402;-88
2023/06/03 10:57:59;;;;;;;0.50;0.50;;;;;;;24.80;42.64;98522.88;105952;1253;60503;-89
2023/06/03 11:01:03;;;;;;;1.20;0.80;;;;;;;24.80;42.62;98520.92;106145;1258;60796;-88
2023/06/03 11:03:33;;;;;;;0.90;0.70;;;;;;;24.80;42.66;98517.63;106001;1260;76055;-88
2023/06/03 11:06:23;;;;;;;0.80;0.50;;;;;;;24.79;42.60;98510.98;105938;1254;68849;-90
2023/06/03 11:09:12;;;;;;;0.80;0.80;;;;;;;24.79;42.57;98514.27;106100;1254;73695;-89
2023/06/03 11:11:41;;;;;;;1.10;0.90;;;;;;;24.78;42.65;98510.34;106070;1254;60486;-88
2023/06/03 11:14:10;;;;;;;0.50;0.50;;;;;;;24.78;42.78;98510.71;106052;1253;60637;-88
2023/06/03 11:16:59;;;;;;;1.10;0.80;;;;;;;24.77;42.77;98505.13;106049;1253;72670;-89
2023/06/03 11:19:30;;;;;;;0.80;0.60;;;;;;;24.77;42.69;98506.44;105978;1253;68455;-88
2023/06/03 11:21:59;;;;;;;1.00;0.70;;;;;;;24.77;42.78;98508.55;106001;1258;71630;-89
2023/06/03 11:24:40;;;;;;;0.90;0.80;;;;;;;24.76;42.70;98511.71;106058;1253;60776;-89
2023/06/03 11:29:48;;;;;;;0.60;0.60;;;;;;;24.75;42.77;98506.70;105889;1253;73651;-89
2023/06/03 11:32:21;;;;;;;0.80;0.70;;;;;;;24.75;42.82;98506.36;106132;1258;68982;-89
2023/06/03 11:35:25;;;;;;;1.60;0.50;;;;;;;24.75;42.83;98498.34;106045;1258;71377;-88
2023/06/03 11:37:54;;;;;;;0.60;0.50;;;;;;;24.75;42.81;98500.70;105945;1260;60469;-89
2023/06/03 11:40:23;;;;;;;0.60;0.60;;;;;;;24.75;42.85;98505.69;106016;1253;61707;-90
2023/06/03 11:42:51;;;;;;;0.90;0.60;;;;;;;24.75;42.78;98501.25;106019;1253;74384;-87
2023/06/03 11:45:27;;;;;;;0.60;0.60;;;;;;;24.75;42.88;98497.38;105988;1258;68665;-88
2023/06/03 11:48:04;;;;;;;0.70;0.60;;;;;;;24.75;42.88;98497.07;106274;1256;72689;-89
2023/06/03 11:50:50;;;;;;;0.50;0.50;;;;;;;24.75;42.85;98493.56;106464;1253;62304;-88
2023/06/03 11:53:35;;;;;;;0.50;0.50;;;;;;;24.75;42.88;98496.61;106212;1258;60355;-89
2023/06/03 11:56:08;;;;;;;0.80;0.60;;;;;;;24.76;42.82;98498.39;106052;1253;73359;-90
2023/06/03 11:58:42;;;;;;;0.60;0.60;;;;;;;24.76;42.83;98493.25;106463;1253;68962;-88